createdAt,value
2019-05-13T00:03:15.759Z,2.30
2019-05-13T00:06:50.233Z,2.37
2019-05-13T00:10:04.097Z,2.13
2019-05-13T00:13:26.035Z,2.37
2019-05-13T00:16:48.131Z,2.30
2019-05-13T00:20:10.892Z,2.10
2019-05-13T00:23:33.959Z,2.20
2019-05-13T00:26:56.837Z,1.90
2019-05-13T00:30:19.439Z,2.40
2019-05-13T00:33:44.268Z,2.43
2019-05-13T00:37:11.139Z,2.37
2019-05-13T00:40:29.758Z,2.50
2019-05-13T00:43:53.225Z,2.30
2019-05-13T00:47:16.071Z,2.00
2019-05-13T00:50:38.103Z,2.07
2019-05-13T00:54:00.467Z,1.80
2019-05-13T00:57:23.823Z,2.00
2019-05-13T01:00:46.554Z,1.90
2019-05-13T01:04:08.951Z,2.40
2019-05-13T01:07:34.019Z,2.03
2019-05-13T01:10:55.606Z,2.77
2019-05-13T01:14:18.181Z,2.63
2019-05-13T01:17:40.924Z,2.20
2019-05-13T01:21:04.381Z,2.23
2019-05-13T01:24:27.334Z,2.27
2019-05-13T01:27:49.730Z,2.03
2019-05-13T01:31:13.240Z,2.20
2019-05-13T01:34:35.472Z,2.40
2019-05-13T01:37:57.602Z,2.10
2019-05-13T01:41:20.289Z,2.10
2019-05-13T01:44:43.779Z,2.20
2019-05-13T01:48:07.773Z,2.30
2019-05-13T01:51:30.208Z,2.37
2019-05-13T01:54:54.373Z,3.17
2019-05-13T01:58:16.654Z,2.03
2019-05-13T02:01:39.379Z,2.20
2019-05-13T02:05:03.953Z,2.27
2019-05-13T02:08:26.212Z,2.20
2019-05-13T02:11:48.597Z,2.17
2019-05-13T02:15:11.158Z,2.30
2019-05-13T02:18:34.315Z,2.33
2019-05-13T02:21:56.884Z,2.90
2019-05-13T02:25:19.291Z,2.50
2019-05-13T02:28:43.640Z,2.63
2019-05-13T02:32:05.681Z,2.70
2019-05-13T02:35:28.334Z,2.10
2019-05-13T02:38:53.201Z,2.43
2019-05-13T02:42:15.032Z,1.97
2019-05-13T02:45:38.139Z,2.63
2019-05-13T02:49:03.199Z,2.37
2019-05-13T02:52:24.412Z,2.23
2019-05-13T02:55:46.996Z,2.40
2019-05-13T02:59:13.013Z,2.20
2019-05-13T03:02:33.572Z,3.13
2019-05-13T03:05:56.116Z,2.27
2019-05-13T03:09:18.617Z,2.53
2019-05-13T03:12:42.395Z,3.33
2019-05-13T03:16:27.809Z,2.60
2019-05-13T03:19:52.996Z,2.80
2019-05-13T03:23:14.029Z,2.50
2019-05-13T03:26:36.182Z,2.90
2019-05-13T03:29:58.803Z,2.70
2019-05-13T03:33:27.337Z,2.60
2019-05-13T03:36:46.465Z,3.27
2019-05-13T03:40:08.844Z,2.70
2019-05-13T03:43:33.138Z,2.53
2019-05-13T03:46:57.804Z,3.10
2019-05-13T03:50:22.658Z,2.60
2019-05-13T03:53:44.490Z,3.00
2019-05-13T03:57:07.034Z,2.73
2019-05-13T04:00:32.073Z,3.33
2019-05-13T04:03:53.261Z,2.60
2019-05-13T04:07:15.684Z,3.20
2019-05-13T04:10:38.435Z,2.77
2019-05-13T04:14:03.262Z,3.47
2019-05-13T04:17:24.824Z,3.17
2019-05-13T04:20:52.986Z,2.93
2019-05-13T04:24:15.105Z,3.27
2019-05-13T04:27:37.610Z,2.87
2019-05-13T04:31:02.433Z,2.60
2019-05-13T04:34:24.294Z,3.50
2019-05-13T04:37:47.074Z,3.30
2019-05-13T04:41:12.012Z,3.23
2019-05-13T04:44:33.569Z,3.57
2019-05-13T04:47:56.079Z,3.33
2019-05-13T04:51:18.399Z,3.47
2019-05-13T04:54:43.620Z,3.57
2019-05-13T04:58:04.778Z,3.77
2019-05-13T05:01:40.057Z,4.13
2019-05-13T05:05:13.012Z,3.57
2019-05-13T05:08:57.021Z,3.70
2019-05-13T05:12:47.717Z,4.13
2019-05-13T05:16:44.744Z,3.67
2019-05-13T05:20:14.417Z,4.90
2019-05-13T05:24:22.212Z,3.97
2019-05-13T05:28:06.048Z,5.07
2019-05-13T05:31:38.203Z,4.47
2019-05-13T05:35:25.875Z,4.00
2019-05-13T05:39:12.280Z,4.03
2019-05-13T05:42:37.407Z,4.30
2019-05-13T05:46:02.425Z,4.63
2019-05-13T05:49:26.175Z,4.20
2019-05-13T05:52:51.338Z,4.53
2019-05-13T05:56:16.526Z,3.60
2019-05-13T05:59:39.431Z,3.83
2019-05-13T06:03:03.578Z,4.40
2019-05-13T06:06:27.056Z,4.20
2019-05-13T06:09:51.599Z,4.57
2019-05-13T06:13:14.808Z,4.50
2019-05-13T06:16:37.567Z,4.23
2019-05-13T06:20:03.215Z,3.23
2019-05-13T06:23:25.865Z,3.40
2019-05-13T06:26:48.258Z,3.53
2019-05-13T06:30:12.639Z,3.80
2019-05-13T06:33:34.918Z,3.40
2019-05-13T06:36:57.471Z,4.07
2019-05-13T06:40:21.440Z,3.70
2019-05-13T06:43:43.883Z,4.53
2019-05-13T06:47:06.541Z,4.23
2019-05-13T06:50:28.929Z,4.30
2019-05-13T06:53:51.823Z,3.70
2019-05-13T06:57:16.314Z,3.40
2019-05-13T07:00:38.931Z,4.03
2019-05-13T07:04:02.362Z,3.90
2019-05-13T07:07:24.747Z,4.67
2019-05-13T07:10:47.186Z,3.60
2019-05-13T07:14:11.990Z,3.47
2019-05-13T07:17:33.507Z,3.20
2019-05-13T07:20:56.159Z,3.50
2019-05-13T07:24:18.596Z,4.40
2019-05-13T07:27:42.381Z,4.13
2019-05-13T07:31:05.433Z,4.20
2019-05-13T07:34:27.665Z,3.75
2019-05-13T07:37:51.743Z,4.12
2019-05-13T07:41:14.539Z,4.90
2019-05-13T07:44:37.203Z,3.72
2019-05-13T07:48:01.438Z,3.67
2019-05-13T07:51:24.219Z,3.60
2019-05-13T07:54:46.730Z,3.50
2019-05-13T07:58:11.470Z,3.37
2019-05-13T08:01:33.461Z,3.17
2019-05-13T08:04:56.174Z,3.07
2019-05-13T08:08:18.270Z,2.87
2019-05-13T08:11:59.978Z,2.77
2019-05-13T08:15:06.087Z,3.20
2019-05-13T08:18:28.842Z,2.63
2019-05-13T08:21:51.450Z,2.30
2019-05-13T08:25:14.515Z,2.20
2019-05-13T08:28:52.698Z,2.43
2019-05-13T08:32:02.873Z,3.80
2019-05-13T08:35:24.761Z,2.60
2019-05-13T08:38:47.907Z,2.40
2019-05-13T08:42:16.110Z,2.33
2019-05-13T08:45:34.190Z,2.57
2019-05-13T08:48:56.635Z,1.60
2019-05-13T08:52:21.754Z,2.13
2019-05-13T08:55:43.459Z,2.00
2019-05-13T08:59:05.664Z,2.03
2019-05-13T09:04:42.190Z,2.83
2019-05-13T09:08:04.804Z,2.60
2019-05-13T09:11:27.494Z,2.70
2019-05-13T09:14:52.223Z,2.30
2019-05-13T09:18:14.252Z,2.40
2019-05-13T09:21:36.699Z,2.13
2019-05-13T09:25:01.887Z,2.57
2019-05-13T09:28:23.119Z,2.73
2019-05-13T09:31:45.334Z,2.60
2019-05-13T09:35:07.450Z,2.77
2019-05-13T09:38:32.383Z,2.30
2019-05-13T09:41:53.723Z,1.73
2019-05-13T09:45:16.459Z,2.10
2019-05-13T09:48:39.239Z,2.40
2019-05-13T09:52:01.793Z,2.00
2019-05-13T09:55:29.025Z,1.93
2019-05-13T09:58:51.180Z,2.30
2019-05-13T10:02:12.722Z,2.40
2019-05-13T10:05:35.272Z,1.87
2019-05-13T10:08:57.840Z,1.90
2019-05-13T10:12:23.827Z,2.00
2019-05-13T10:15:48.566Z,1.53
2019-05-13T10:19:08.418Z,2.00
2019-05-13T10:22:31.944Z,1.87
2019-05-13T10:25:58.001Z,2.60
2019-05-13T10:29:22.375Z,2.67
2019-05-13T10:32:44.956Z,2.67
2019-05-13T10:36:08.335Z,2.47
2019-05-13T10:39:30.700Z,2.30
2019-05-13T10:42:52.707Z,2.53
2019-05-13T10:46:15.097Z,2.83
2019-05-13T10:49:37.511Z,2.70
2019-05-13T10:53:02.553Z,3.13
2019-05-13T10:56:23.876Z,2.23
2019-05-13T10:59:45.944Z,1.90
2019-05-13T11:03:08.690Z,2.80
2019-05-13T11:06:34.516Z,1.83
2019-05-13T11:09:56.866Z,2.30
2019-05-13T11:13:22.600Z,2.30
2019-05-13T11:16:43.527Z,2.50
2019-05-13T11:20:06.181Z,3.20
2019-05-13T11:23:28.556Z,2.10
2019-05-13T11:26:53.094Z,4.87
2019-05-13T11:30:14.748Z,2.27
2019-05-13T11:33:37.374Z,1.47
2019-05-13T11:37:03.303Z,2.30
2019-05-13T11:40:23.568Z,2.33
2019-05-13T11:43:45.970Z,2.63
2019-05-13T11:47:08.392Z,2.53
2019-05-13T11:50:30.665Z,2.30
2019-05-13T11:53:53.085Z,2.43
2019-05-13T11:57:15.796Z,3.37
2019-05-13T12:00:53.631Z,2.30
2019-05-13T12:04:16.255Z,1.90
2019-05-13T12:07:40.221Z,2.00
2019-05-13T12:11:05.653Z,1.90
2019-05-13T12:14:56.930Z,1.70
2019-05-13T12:17:52.922Z,2.20
2019-05-13T12:21:15.713Z,1.90
2019-05-13T12:24:37.857Z,2.00
2019-05-13T12:28:03.331Z,1.83
2019-05-13T12:31:24.614Z,2.33
2019-05-13T12:34:47.423Z,2.50
2019-05-13T12:38:13.235Z,1.73
2019-05-13T12:41:34.621Z,1.60
2019-05-13T12:48:08.174Z,1.80
2019-05-13T12:51:32.574Z,2.00
2019-05-13T12:54:55.027Z,1.97
2019-05-13T12:58:17.392Z,1.60
2019-05-13T13:01:39.883Z,1.87
2019-05-13T13:05:18.438Z,1.80
2019-05-13T13:08:40.023Z,1.90
2019-05-13T13:11:53.968Z,1.80
2019-05-13T13:15:35.909Z,2.20
2019-05-13T13:18:39.127Z,2.00
2019-05-13T13:22:06.851Z,1.90
2019-05-13T13:25:26.582Z,2.30
2019-05-13T13:28:48.940Z,3.03
2019-05-13T13:32:13.407Z,2.10
2019-05-13T13:35:35.116Z,1.30
2019-05-13T13:38:57.491Z,1.70
2019-05-13T13:42:19.803Z,1.50
2019-05-13T13:46:06.549Z,2.07
2019-05-13T13:49:06.290Z,2.60
2019-05-13T17:51:51.833Z,2.00
2019-05-13T17:55:14.636Z,1.80
2019-05-13T17:58:37.308Z,1.50
2019-05-13T18:02:02.323Z,1.90
2019-05-13T18:05:24.284Z,1.50
2019-05-13T18:08:46.859Z,2.20
2019-05-13T18:12:11.571Z,1.70
2019-05-13T18:15:34.293Z,1.97
2019-05-13T18:18:57.048Z,2.50
2019-05-13T18:22:19.759Z,2.20
2019-05-13T18:25:42.329Z,1.70
2019-05-13T18:29:04.831Z,1.80
2019-05-13T18:32:27.608Z,2.00
2019-05-13T18:35:52.422Z,1.67
2019-05-13T18:39:14.143Z,1.40
2019-05-13T18:42:36.553Z,2.10
2019-05-13T18:46:01.791Z,2.20
2019-05-13T18:49:22.994Z,1.90
2019-05-13T18:52:45.208Z,2.10
2019-05-13T18:56:07.680Z,2.50
2019-05-13T18:59:32.004Z,2.00
2019-05-13T19:02:54.076Z,1.73
2019-05-13T19:06:16.487Z,1.40
2019-05-13T19:09:38.499Z,1.50
2019-05-13T19:13:01.706Z,1.70
2019-05-13T19:16:24.391Z,6.27
2019-05-13T19:19:46.946Z,1.57
2019-05-13T19:23:11.645Z,1.60
2019-05-13T19:26:33.722Z,1.80
2019-05-13T19:29:56.507Z,1.80
2019-05-13T19:33:19.437Z,1.80
2019-05-13T19:36:42.408Z,1.97
2019-05-13T19:40:05.444Z,2.10
2019-05-13T19:43:27.511Z,1.70
2019-05-13T19:46:52.217Z,2.00
2019-05-13T19:50:14.319Z,2.20
2019-05-13T19:53:36.763Z,2.03
2019-05-13T19:57:01.224Z,2.70
2019-05-13T20:00:23.476Z,2.47
2019-05-13T20:03:46.171Z,2.80
2019-05-13T20:07:08.671Z,2.50
2019-05-13T20:10:31.429Z,2.20
2019-05-13T20:13:54.275Z,2.13
2019-05-13T20:17:16.871Z,2.40
2019-05-13T20:20:41.214Z,2.10
2019-05-13T20:24:03.614Z,2.23
2019-05-13T20:27:26.138Z,2.10
2019-05-13T20:30:48.460Z,2.17
2019-05-13T20:34:11.902Z,1.90
2019-05-13T20:37:34.648Z,1.90
2019-05-13T20:40:57.179Z,2.43
2019-05-13T20:44:21.983Z,1.80
2019-05-13T20:47:43.856Z,1.77
2019-05-13T20:51:06.359Z,2.00
2019-05-13T20:54:31.199Z,1.90
2019-05-13T20:57:53.258Z,1.97
2019-05-13T21:01:15.901Z,2.00
2019-05-13T21:04:38.422Z,1.57
2019-05-13T21:08:01.721Z,1.70
2019-05-13T21:11:24.149Z,1.90
2019-05-13T21:14:46.538Z,2.00
2019-05-13T21:18:11.362Z,1.77
2019-05-13T21:21:33.134Z,1.33
2019-05-13T21:24:55.689Z,1.80
2019-05-13T21:28:18.810Z,1.73
2019-05-13T21:31:41.586Z,1.87
2019-05-13T21:35:04.261Z,1.87
2019-05-13T21:38:26.531Z,1.87
2019-05-13T21:41:51.771Z,1.93
2019-05-13T21:45:13.362Z,2.17
2019-05-13T21:48:35.566Z,2.00
2019-05-13T21:51:58.423Z,1.90
2019-05-13T21:55:21.682Z,2.13
2019-05-13T21:58:44.466Z,2.20
2019-05-13T22:02:07.116Z,2.10
2019-05-13T22:05:31.362Z,2.17
2019-05-13T22:08:53.716Z,2.73
2019-05-13T22:12:16.724Z,2.43
2019-05-13T22:15:41.451Z,2.10
2019-05-13T22:19:03.201Z,2.30
2019-05-13T22:22:25.888Z,2.40
2019-05-13T22:25:48.199Z,1.90
2019-05-13T22:29:10.626Z,2.63
2019-05-13T22:32:33.354Z,2.33
2019-05-13T22:35:56.115Z,2.30
2019-05-13T22:39:18.478Z,2.70
2019-05-13T22:42:41.562Z,2.70
2019-05-13T22:46:04.174Z,2.60
2019-05-13T22:49:26.944Z,3.20
2019-05-13T22:52:49.276Z,2.43
2019-05-13T22:56:11.863Z,2.30
2019-05-13T22:59:34.010Z,2.17
2019-05-13T23:02:56.597Z,2.20
2019-05-13T23:06:21.453Z,2.20
2019-05-13T23:09:43.026Z,1.97
2019-05-13T23:13:05.418Z,2.70
2019-05-13T23:16:28.176Z,2.40
2019-05-13T23:19:52.254Z,2.27
2019-05-13T23:23:14.784Z,2.40
2019-05-13T23:26:37.292Z,2.37
2019-05-13T23:30:01.235Z,2.80
2019-05-13T23:33:24.245Z,2.40
2019-05-13T23:36:46.728Z,2.30
2019-05-13T23:40:11.697Z,2.20
2019-05-13T23:43:33.587Z,2.20
2019-05-13T23:46:55.987Z,2.10
2019-05-13T23:50:18.807Z,2.13
2019-05-13T23:53:41.663Z,2.50
2019-05-13T23:57:04.226Z,2.10
